sensor_id;sensor_type;location;lat;lon;timestamp;pressure;altitude;pressure_sealevel;temperature;humidity
804;BME280;25687;49.976;8.240;2023-03-03T00:01:21;100455.97;;;0.24;100.00
804;BME280;25687;49.976;8.240;2023-03-03T00:03:49;100457.56;;;0.31;100.00
804;BME280;25687;49.976;8.240;2023-03-03T00:06:14;100458.41;;;0.33;100.00
804;BME280;25687;49.976;8.240;2023-03-03T00:08:40;100460.91;;;0.38;100.00
804;BME280;25687;49.976;8.240;2023-03-03T00:11:06;100466.00;;;0.33;100.00
804;BME280;25687;49.976;8.240;2023-03-03T00:13:40;100454.25;;;0.24;100.00
804;BME280;25687;49.976;8.240;2023-03-03T00:18:53;100458.56;;;0.11;100.00
804;BME280;25687;49.976;8.240;2023-03-03T00:23:54;100457.72;;;0.05;100.00
804;BME280;25687;49.976;8.240;2023-03-03T00:26:30;100466.19;;;0.01;100.00
804;BME280;25687;49.976;8.240;2023-03-03T00:28:59;100470.44;;;-0.05;100.00
804;BME280;25687;49.976;8.240;2023-03-03T00:31:31;100475.47;;;-0.03;100.00
804;BME280;25687;49.976;8.240;2023-03-03T00:34:15;100478.81;;;0.02;100.00
804;BME280;25687;49.976;8.240;2023-03-03T00:36:45;100483.88;;;0.02;100.00
804;BME280;25687;49.976;8.240;2023-03-03T00:39:27;100480.53;;;-0.02;100.00
804;BME280;25687;49.976;8.240;2023-03-03T00:41:53;100491.59;;;-0.20;100.00
804;BME280;25687;49.976;8.240;2023-03-03T00:47:29;100492.47;;;-0.36;100.00
804;BME280;25687;49.976;8.240;2023-03-03T00:50:21;100497.53;;;-0.33;100.00
804;BME280;25687;49.976;8.240;2023-03-03T00:53:01;100498.38;;;-0.36;100.00
804;BME280;25687;49.976;8.240;2023-03-03T00:55:28;100497.50;;;-0.27;100.00
804;BME280;25687;49.976;8.240;2023-03-03T00:57:54;100504.22;;;-0.23;100.00
804;BME280;25687;49.976;8.240;2023-03-03T01:00:19;100504.25;;;-0.29;100.00
804;BME280;25687;49.976;8.240;2023-03-03T01:02:44;100497.53;;;-0.35;100.00
804;BME280;25687;49.976;8.240;2023-03-03T01:05:12;100508.47;;;-0.39;100.00
804;BME280;25687;49.976;8.240;2023-03-03T01:07:38;100499.22;;;-0.40;100.00
804;BME280;25687;49.976;8.240;2023-03-03T01:10:04;100499.25;;;-0.49;100.00
804;BME280;25687;49.976;8.240;2023-03-03T01:12:29;100489.97;;;-0.50;100.00
804;BME280;25687;49.976;8.240;2023-03-03T01:14:55;100496.72;;;-0.58;100.00
804;BME280;25687;49.976;8.240;2023-03-03T01:17:20;100486.63;;;-0.57;100.00
804;BME280;25687;49.976;8.240;2023-03-03T01:19:46;100493.38;;;-0.56;100.00
804;BME280;25687;49.976;8.240;2023-03-03T01:22:11;100485.81;;;-0.62;100.00
804;BME280;25687;49.976;8.240;2023-03-03T01:24:36;100483.28;;;-0.60;100.00
804;BME280;25687;49.976;8.240;2023-03-03T01:27:02;100485.84;;;-0.80;100.00
804;BME280;25687;49.976;8.240;2023-03-03T01:29:27;100483.31;;;-0.91;100.00
804;BME280;25687;49.976;8.240;2023-03-03T01:31:52;100485.84;;;-0.85;100.00
804;BME280;25687;49.976;8.240;2023-03-03T01:34:17;100485.00;;;-0.83;100.00
804;BME280;25687;49.976;8.240;2023-03-03T01:36:43;100489.19;;;-0.74;100.00
804;BME280;25687;49.976;8.240;2023-03-03T01:39:10;100489.19;;;-0.75;100.00
804;BME280;25687;49.976;8.240;2023-03-03T01:41:35;100485.81;;;-0.77;100.00
804;BME280;25687;49.976;8.240;2023-03-03T01:44:01;100487.53;;;-0.83;100.00
804;BME280;25687;49.976;8.240;2023-03-03T01:48:58;100485.84;;;-0.98;100.00
804;BME280;25687;49.976;8.240;2023-03-03T01:51:51;100486.72;;;-1.06;100.00
804;BME280;25687;49.976;8.240;2023-03-03T01:54:22;100479.97;;;-1.03;100.00
804;BME280;25687;49.976;8.240;2023-03-03T01:56:50;100475.75;;;-1.02;100.00
804;BME280;25687;49.976;8.240;2023-03-03T01:59:24;100474.91;;;-1.12;100.00
804;BME280;25687;49.976;8.240;2023-03-03T02:01:52;100474.91;;;-1.04;100.00
804;BME280;25687;49.976;8.240;2023-03-03T02:04:17;100479.97;;;-1.17;100.00
804;BME280;25687;49.976;8.240;2023-03-03T02:06:49;100483.34;;;-1.21;100.00
804;BME280;25687;49.976;8.240;2023-03-03T02:09:26;100479.97;;;-1.14;100.00
804;BME280;25687;49.976;8.240;2023-03-03T02:11:58;100487.53;;;-1.18;100.00
804;BME280;25687;49.976;8.240;2023-03-03T02:14:25;100474.91;;;-1.18;100.00
804;BME280;25687;49.976;8.240;2023-03-03T02:16:51;100471.56;;;-1.36;100.00
804;BME280;25687;49.976;8.240;2023-03-03T02:19:29;100469.84;;;-1.43;100.00
804;BME280;25687;49.976;8.240;2023-03-03T02:21:58;100478.28;;;-1.28;100.00
804;BME280;25687;49.976;8.240;2023-03-03T02:24:38;100477.44;;;-1.37;100.00
804;BME280;25687;49.976;8.240;2023-03-03T02:27:07;100479.13;;;-1.30;100.00
804;BME280;25687;49.976;8.240;2023-03-03T02:29:32;100479.13;;;-1.31;100.00
804;BME280;25687;49.976;8.240;2023-03-03T02:31:57;100476.59;;;-1.30;100.00
804;BME280;25687;49.976;8.240;2023-03-03T02:34:23;100476.63;;;-1.33;100.00
804;BME280;25687;49.976;8.240;2023-03-03T02:36:48;100471.56;;;-1.39;100.00
804;BME280;25687;49.976;8.240;2023-03-03T02:39:25;100481.63;;;-1.54;100.00
804;BME280;25687;49.976;8.240;2023-03-03T02:42:14;100478.28;;;-1.61;100.00
804;BME280;25687;49.976;8.240;2023-03-03T02:44:41;100474.91;;;-1.51;100.00
804;BME280;25687;49.976;8.240;2023-03-03T02:47:06;100478.25;;;-1.56;100.00
804;BME280;25687;49.976;8.240;2023-03-03T02:49:33;100479.94;;;-1.55;100.00
804;BME280;25687;49.976;8.240;2023-03-03T02:52:01;100481.63;;;-1.60;100.00
804;BME280;25687;49.976;8.240;2023-03-03T02:54:28;100474.91;;;-1.58;100.00
804;BME280;25687;49.976;8.240;2023-03-03T02:56:57;100479.13;;;-1.56;100.00
804;BME280;25687;49.976;8.240;2023-03-03T02:59:22;100479.09;;;-1.54;100.00
804;BME280;25687;49.976;8.240;2023-03-03T03:01:48;100478.28;;;-1.53;100.00
804;BME280;25687;49.976;8.240;2023-03-03T03:04:19;100482.47;;;-1.58;100.00
804;BME280;25687;49.976;8.240;2023-03-03T03:06:45;100484.97;;;-1.62;100.00
804;BME280;25687;49.976;8.240;2023-03-03T03:09:11;100478.25;;;-1.63;100.00
804;BME280;25687;49.976;8.240;2023-03-03T03:11:36;100476.56;;;-1.60;100.00
804;BME280;25687;49.976;8.240;2023-03-03T03:14:03;100476.59;;;-1.64;100.00
804;BME280;25687;49.976;8.240;2023-03-03T03:16:28;100484.97;;;-1.72;100.00
804;BME280;25687;49.976;8.240;2023-03-03T03:18:56;100487.50;;;-1.72;100.00
804;BME280;25687;49.976;8.240;2023-03-03T03:21:22;100483.28;;;-1.73;100.00
804;BME280;25687;49.976;8.240;2023-03-03T03:23:47;100485.78;;;-1.76;100.00
804;BME280;25687;49.976;8.240;2023-03-03T03:26:12;100483.25;;;-1.81;100.00
804;BME280;25687;49.976;8.240;2023-03-03T03:28:38;100482.41;;;-1.80;100.00
804;BME280;25687;49.976;8.240;2023-03-03T03:31:05;100479.03;;;-1.95;100.00
804;BME280;25687;49.976;8.240;2023-03-03T03:33:30;100477.38;;;-1.91;100.00
804;BME280;25687;49.976;8.240;2023-03-03T03:35:56;100486.59;;;-1.85;100.00
804;BME280;25687;49.976;8.240;2023-03-03T03:38:23;100488.28;;;-1.81;100.00
804;BME280;25687;49.976;8.240;2023-03-03T03:40:51;100489.16;;;-1.79;100.00
804;BME280;25687;49.976;8.240;2023-03-03T03:43:16;100490.00;;;-1.77;100.00
804;BME280;25687;49.976;8.240;2023-03-03T03:45:42;100486.63;;;-1.79;100.00
804;BME280;25687;49.976;8.240;2023-03-03T03:48:07;100493.38;;;-1.80;100.00
804;BME280;25687;49.976;8.240;2023-03-03T03:50:33;100484.94;;;-1.82;100.00
804;BME280;25687;49.976;8.240;2023-03-03T03:52:58;100494.19;;;-1.87;100.00
804;BME280;25687;49.976;8.240;2023-03-03T03:55:23;100497.50;;;-1.92;100.00
804;BME280;25687;49.976;8.240;2023-03-03T03:57:49;100491.63;;;-1.91;100.00
804;BME280;25687;49.976;8.240;2023-03-03T04:00:14;100495.81;;;-1.98;100.00
804;BME280;25687;49.976;8.240;2023-03-03T04:02:40;100495.81;;;-1.95;100.00
804;BME280;25687;49.976;8.240;2023-03-03T04:05:05;100497.50;;;-2.00;100.00
804;BME280;25687;49.976;8.240;2023-03-03T04:07:31;100505.91;;;-1.95;100.00
804;BME280;25687;49.976;8.240;2023-03-03T04:09:56;100500.00;;;-2.05;100.00
804;BME280;25687;49.976;8.240;2023-03-03T04:12:22;100507.56;;;-2.00;100.00
804;BME280;25687;49.976;8.240;2023-03-03T04:14:47;100512.66;;;-1.91;100.00
804;BME280;25687;49.976;8.240;2023-03-03T04:17:20;100510.94;;;-1.93;100.00
804;BME280;25687;49.976;8.240;2023-03-03T04:19:46;100506.78;;;-1.88;100.00
804;BME280;25687;49.976;8.240;2023-03-03T04:22:11;100505.94;;;-1.90;100.00
804;BME280;25687;49.976;8.240;2023-03-03T04:24:38;100513.50;;;-1.90;100.00
804;BME280;25687;49.976;8.240;2023-03-03T04:27:04;100505.06;;;-2.00;100.00
804;BME280;25687;49.976;8.240;2023-03-03T04:29:29;100505.91;;;-1.95;100.00
804;BME280;25687;49.976;8.240;2023-03-03T04:31:54;100511.81;;;-1.93;100.00
804;BME280;25687;49.976;8.240;2023-03-03T04:34:20;100503.41;;;-1.90;100.00
804;BME280;25687;49.976;8.240;2023-03-03T04:36:45;100511.81;;;-1.95;100.00
804;BME280;25687;49.976;8.240;2023-03-03T04:39:11;100518.50;;;-1.97;100.00
804;BME280;25687;49.976;8.240;2023-03-03T04:41:36;100516.81;;;-1.98;100.00
804;BME280;25687;49.976;8.240;2023-03-03T04:44:01;100510.09;;;-2.02;100.00
804;BME280;25687;49.976;8.240;2023-03-03T04:46:26;100520.16;;;-2.05;100.00
804;BME280;25687;49.976;8.240;2023-03-03T04:48:52;100524.34;;;-2.13;100.00
804;BME280;25687;49.976;8.240;2023-03-03T04:51:17;100521.78;;;-2.15;100.00
804;BME280;25687;49.976;8.240;2023-03-03T04:53:42;100518.44;;;-2.14;100.00
804;BME280;25687;49.976;8.240;2023-03-03T04:56:08;100523.47;;;-2.18;100.00
804;BME280;25687;49.976;8.240;2023-03-03T04:58:33;100526.00;;;-2.14;100.00
804;BME280;25687;49.976;8.240;2023-03-03T05:00:58;100521.00;;;-2.07;100.00
804;BME280;25687;49.976;8.240;2023-03-03T05:03:24;100527.72;;;-2.08;100.00
804;BME280;25687;49.976;8.240;2023-03-03T05:05:51;100525.19;;;-2.06;100.00
804;BME280;25687;49.976;8.240;2023-03-03T05:08:16;100525.19;;;-2.16;100.00
804;BME280;25687;49.976;8.240;2023-03-03T05:10:53;100524.31;;;-2.16;100.00
804;BME280;25687;49.976;8.240;2023-03-03T05:13:24;100531.03;;;-2.17;100.00
804;BME280;25687;49.976;8.240;2023-03-03T05:15:52;100526.84;;;-2.19;100.00
804;BME280;25687;49.976;8.240;2023-03-03T05:18:20;100519.25;;;-2.21;100.00
804;BME280;25687;49.976;8.240;2023-03-03T05:20:46;100523.47;;;-2.21;100.00
804;BME280;25687;49.976;8.240;2023-03-03T05:23:11;100520.94;;;-2.24;100.00
804;BME280;25687;49.976;8.240;2023-03-03T05:25:36;100521.72;;;-2.27;100.00
804;BME280;25687;49.976;8.240;2023-03-03T05:28:02;100523.47;;;-2.21;100.00
804;BME280;25687;49.976;8.240;2023-03-03T05:30:28;100525.16;;;-2.19;100.00
804;BME280;25687;49.976;8.240;2023-03-03T05:32:54;100522.63;;;-2.19;100.00
804;BME280;25687;49.976;8.240;2023-03-03T05:35:19;100526.78;;;-2.27;100.00
804;BME280;25687;49.976;8.240;2023-03-03T05:37:44;100535.25;;;-2.16;100.00
804;BME280;25687;49.976;8.240;2023-03-03T05:40:13;100531.88;;;-2.19;100.00
804;BME280;25687;49.976;8.240;2023-03-03T05:42:39;100536.09;;;-2.18;100.00
804;BME280;25687;49.976;8.240;2023-03-03T05:45:04;100536.06;;;-2.21;100.00
804;BME280;25687;49.976;8.240;2023-03-03T05:47:30;100540.19;;;-2.33;100.00
804;BME280;25687;49.976;8.240;2023-03-03T05:49:55;100531.78;;;-2.33;100.00
804;BME280;25687;49.976;8.240;2023-03-03T05:52:20;100541.91;;;-2.27;100.00
804;BME280;25687;49.976;8.240;2023-03-03T05:54:46;100546.97;;;-2.22;100.00
804;BME280;25687;49.976;8.240;2023-03-03T05:57:11;100552.84;;;-2.23;100.00
804;BME280;25687;49.976;8.240;2023-03-03T05:59:37;100560.41;;;-2.25;100.00
804;BME280;25687;49.976;8.240;2023-03-03T06:02:02;100557.88;;;-2.25;100.00
804;BME280;25687;49.976;8.240;2023-03-03T06:04:27;100562.91;;;-2.27;100.00
804;BME280;25687;49.976;8.240;2023-03-03T06:06:52;100561.25;;;-2.23;100.00
804;BME280;25687;49.976;8.240;2023-03-03T06:09:18;100557.88;;;-2.28;100.00
804;BME280;25687;49.976;8.240;2023-03-03T06:11:43;100563.75;;;-2.26;100.00
804;BME280;25687;49.976;8.240;2023-03-03T06:14:08;100575.53;;;-2.25;100.00
804;BME280;25687;49.976;8.240;2023-03-03T06:16:34;100582.22;;;-2.27;100.00
804;BME280;25687;49.976;8.240;2023-03-03T06:18:59;100572.16;;;-2.25;100.00
804;BME280;25687;49.976;8.240;2023-03-03T06:21:25;100575.53;;;-2.23;100.00
804;BME280;25687;49.976;8.240;2023-03-03T06:23:50;100584.81;;;-2.18;100.00
804;BME280;25687;49.976;8.240;2023-03-03T06:26:16;100577.22;;;-2.22;100.00
804;BME280;25687;49.976;8.240;2023-03-03T06:28:41;100576.41;;;-2.18;100.00
804;BME280;25687;49.976;8.240;2023-03-03T06:31:06;100583.91;;;-2.26;100.00
804;BME280;25687;49.976;8.240;2023-03-03T06:33:32;100586.50;;;-2.17;100.00
804;BME280;25687;49.976;8.240;2023-03-03T06:35:57;100592.44;;;-2.05;100.00
804;BME280;25687;49.976;8.240;2023-03-03T06:38:23;100582.44;;;-1.84;100.00
804;BME280;25687;49.976;8.240;2023-03-03T06:40:48;100590.09;;;-1.70;100.00
804;BME280;25687;49.976;8.240;2023-03-03T06:43:13;100589.28;;;-1.55;100.00
804;BME280;25687;49.976;8.240;2023-03-03T06:45:39;100599.38;;;-1.55;100.00
804;BME280;25687;49.976;8.240;2023-03-03T06:48:05;100600.25;;;-1.34;100.00
804;BME280;25687;49.976;8.240;2023-03-03T06:50:30;100618.00;;;-1.20;100.00
804;BME280;25687;49.976;8.240;2023-03-03T06:53:05;100608.72;;;-1.17;100.00
804;BME280;25687;49.976;8.240;2023-03-03T06:55:31;100617.19;;;-0.90;100.00
804;BME280;25687;49.976;8.240;2023-03-03T06:57:58;100618.06;;;-0.77;100.00
804;BME280;25687;49.976;8.240;2023-03-03T07:00:26;100623.09;;;-0.47;100.00
804;BME280;25687;49.976;8.240;2023-03-03T07:03:06;100614.66;;;-0.42;100.00
804;BME280;25687;49.976;8.240;2023-03-03T07:05:32;100617.16;;;-0.15;100.00
804;BME280;25687;49.976;8.240;2023-03-03T07:07:58;100624.66;;;0.15;100.00
804;BME280;25687;49.976;8.240;2023-03-03T07:10:28;100626.13;;;0.69;100.00
804;BME280;25687;49.976;8.240;2023-03-03T07:12:57;100628.56;;;1.90;100.00
804;BME280;25687;49.976;8.240;2023-03-03T07:15:33;100632.84;;;3.19;100.00
804;BME280;25687;49.976;8.240;2023-03-03T07:17:59;100625.78;;;3.88;100.00
804;BME280;25687;49.976;8.240;2023-03-03T07:20:34;100623.75;;;4.48;99.09
804;BME280;25687;49.976;8.240;2023-03-03T07:23:07;100634.41;;;4.27;100.00
804;BME280;25687;49.976;8.240;2023-03-03T07:25:36;100641.34;;;4.61;100.00
804;BME280;25687;49.976;8.240;2023-03-03T07:28:22;100642.53;;;4.44;100.00
804;BME280;25687;49.976;8.240;2023-03-03T07:30:47;100659.31;;;4.09;100.00
804;BME280;25687;49.976;8.240;2023-03-03T07:33:41;100654.22;;;4.11;100.00
804;BME280;25687;49.976;8.240;2023-03-03T07:36:23;100652.63;;;4.05;100.00
804;BME280;25687;49.976;8.240;2023-03-03T07:38:56;100658.81;;;4.37;100.00
804;BME280;25687;49.976;8.240;2023-03-03T07:41:22;100661.75;;;4.59;100.00
804;BME280;25687;49.976;8.240;2023-03-03T07:43:58;100665.09;;;4.63;100.00
804;BME280;25687;49.976;8.240;2023-03-03T07:46:27;100664.75;;;4.36;100.00
804;BME280;25687;49.976;8.240;2023-03-03T07:48:57;100672.56;;;3.81;100.00
804;BME280;25687;49.976;8.240;2023-03-03T07:51:28;100686.81;;;3.40;100.00
804;BME280;25687;49.976;8.240;2023-03-03T07:56:35;100693.28;;;2.30;100.00
804;BME280;25687;49.976;8.240;2023-03-03T07:59:24;100694.31;;;2.14;100.00
804;BME280;25687;49.976;8.240;2023-03-03T08:01:55;100698.56;;;2.12;100.00
804;BME280;25687;49.976;8.240;2023-03-03T08:04:28;100711.38;;;1.99;100.00
804;BME280;25687;49.976;8.240;2023-03-03T08:07:01;100699.81;;;1.69;100.00
804;BME280;25687;49.976;8.240;2023-03-03T08:09:31;100696.19;;;1.96;100.00
804;BME280;25687;49.976;8.240;2023-03-03T08:14:34;100708.00;;;1.99;100.00
804;BME280;25687;49.976;8.240;2023-03-03T08:17:00;100710.47;;;2.03;100.00
804;BME280;25687;49.976;8.240;2023-03-03T08:19:29;100711.19;;;2.18;100.00
804;BME280;25687;49.976;8.240;2023-03-03T08:22:01;100716.28;;;2.16;100.00
804;BME280;25687;49.976;8.240;2023-03-03T08:24:30;100725.94;;;1.77;100.00
804;BME280;25687;49.976;8.240;2023-03-03T08:26:56;100714.09;;;1.77;100.00
804;BME280;25687;49.976;8.240;2023-03-03T08:29:21;100719.94;;;1.87;100.00
804;BME280;25687;49.976;8.240;2023-03-03T08:31:46;100713.84;;;2.05;100.00
804;BME280;25687;49.976;8.240;2023-03-03T08:34:12;100717.25;;;2.04;100.00
804;BME280;25687;49.976;8.240;2023-03-03T08:36:37;100715.56;;;2.05;100.00
804;BME280;25687;49.976;8.240;2023-03-03T08:39:03;100724.03;;;2.04;100.00
804;BME280;25687;49.976;8.240;2023-03-03T08:41:29;100718.97;;;2.01;100.00
804;BME280;25687;49.976;8.240;2023-03-03T08:43:54;100716.47;;;1.98;100.00
804;BME280;25687;49.976;8.240;2023-03-03T08:46:19;100722.16;;;2.21;100.00
804;BME280;25687;49.976;8.240;2023-03-03T08:48:45;100714.34;;;2.40;100.00
804;BME280;25687;49.976;8.240;2023-03-03T08:51:10;100714.41;;;2.35;100.00
804;BME280;25687;49.976;8.240;2023-03-03T08:53:35;100709.22;;;2.43;100.00
804;BME280;25687;49.976;8.240;2023-03-03T08:56:03;100716.19;;;2.25;100.00
804;BME280;25687;49.976;8.240;2023-03-03T08:58:28;100714.41;;;2.35;100.00
804;BME280;25687;49.976;8.240;2023-03-03T09:00:54;100716.66;;;2.60;100.00
804;BME280;25687;49.976;8.240;2023-03-03T09:03:19;100725.94;;;2.63;100.00
804;BME280;25687;49.976;8.240;2023-03-03T09:05:44;100718.28;;;2.67;100.00
804;BME280;25687;49.976;8.240;2023-03-03T09:08:10;100723.22;;;2.77;100.00
804;BME280;25687;49.976;8.240;2023-03-03T09:10:35;100720.53;;;2.90;100.00
804;BME280;25687;49.976;8.240;2023-03-03T09:13:10;100727.34;;;2.88;100.00
804;BME280;25687;49.976;8.240;2023-03-03T09:15:37;100722.31;;;2.84;100.00
804;BME280;25687;49.976;8.240;2023-03-03T09:18:21;100718.38;;;3.81;100.00
804;BME280;25687;49.976;8.240;2023-03-03T09:20:53;100725.63;;;4.50;100.00
804;BME280;25687;49.976;8.240;2023-03-03T09:23:32;100724.97;;;5.61;100.00
804;BME280;25687;49.976;8.240;2023-03-03T09:28:31;100720.66;;;6.93;87.40
804;BME280;25687;49.976;8.240;2023-03-03T09:30:59;100712.72;;;7.58;87.14
804;BME280;25687;49.976;8.240;2023-03-03T09:33:37;100712.25;;;8.95;69.53
804;BME280;25687;49.976;8.240;2023-03-03T09:38:46;100711.88;;;11.27;51.99
804;BME280;25687;49.976;8.240;2023-03-03T09:50:14;100728.53;;;11.56;51.01
804;BME280;25687;49.976;8.240;2023-03-03T09:52:50;100725.78;;;11.42;48.88
804;BME280;25687;49.976;8.240;2023-03-03T09:55:34;100724.97;;;11.59;48.97
804;BME280;25687;49.976;8.240;2023-03-03T10:00:58;100745.44;;;12.15;47.22
804;BME280;25687;49.976;8.240;2023-03-03T10:06:46;100743.50;;;10.54;50.75
804;BME280;25687;49.976;8.240;2023-03-03T10:17:42;100737.81;;;13.11;43.58
804;BME280;25687;49.976;8.240;2023-03-03T10:20:44;100745.34;;;13.15;44.76
804;BME280;25687;49.976;8.240;2023-03-03T10:31:53;100741.16;;;12.31;47.81
804;BME280;25687;49.976;8.240;2023-03-03T10:37:14;100763.78;;;10.00;54.20
804;BME280;25687;49.976;8.240;2023-03-03T10:43:01;100760.25;;;7.65;65.00
804;BME280;25687;49.976;8.240;2023-03-03T10:45:42;100751.69;;;6.51;82.03
804;BME280;25687;49.976;8.240;2023-03-03T10:53:31;100755.00;;;6.22;90.92
804;BME280;25687;49.976;8.240;2023-03-03T11:01:19;100768.00;;;6.12;95.20
804;BME280;25687;49.976;8.240;2023-03-03T11:04:09;100761.81;;;5.87;93.77
804;BME280;25687;49.976;8.240;2023-03-03T11:12:11;100769.91;;;5.29;97.37
804;BME280;25687;49.976;8.240;2023-03-03T11:14:46;100759.69;;;5.68;98.13
804;BME280;25687;49.976;8.240;2023-03-03T11:17:24;100763.19;;;6.00;95.00
804;BME280;25687;49.976;8.240;2023-03-03T11:20:03;100755.28;;;5.75;94.15
804;BME280;25687;49.976;8.240;2023-03-03T11:22:46;100755.59;;;5.61;96.58
804;BME280;25687;49.976;8.240;2023-03-03T11:28:07;100749.63;;;5.96;94.25
804;BME280;25687;49.976;8.240;2023-03-03T11:31:01;100749.16;;;5.82;95.00
804;BME280;25687;49.976;8.240;2023-03-03T11:33:38;100749.13;;;6.18;96.16
804;BME280;25687;49.976;8.240;2023-03-03T11:36:26;100749.03;;;5.87;95.22
804;BME280;25687;49.976;8.240;2023-03-03T11:38:58;100747.50;;;6.16;94.86
804;BME280;25687;49.976;8.240;2023-03-03T11:46:58;100735.72;;;6.43;91.32
804;BME280;25687;49.976;8.240;2023-03-03T11:49:31;100731.34;;;6.46;89.57
804;BME280;25687;49.976;8.240;2023-03-03T11:52:24;100730.69;;;6.70;90.27
804;BME280;25687;49.976;8.240;2023-03-03T11:55:03;100720.25;;;6.77;89.25
804;BME280;25687;49.976;8.240;2023-03-03T12:03:38;100705.28;;;6.63;87.27
804;BME280;25687;49.976;8.240;2023-03-03T12:06:26;100702.75;;;6.63;89.73
804;BME280;25687;49.976;8.240;2023-03-03T12:09:00;100706.44;;;6.53;88.67
804;BME280;25687;49.976;8.240;2023-03-03T12:11:50;100699.81;;;6.48;89.21
804;BME280;25687;49.976;8.240;2023-03-03T12:14:31;100702.22;;;6.52;89.76
804;BME280;25687;49.976;8.240;2023-03-03T12:20:07;100686.31;;;7.01;86.42
804;BME280;25687;49.976;8.240;2023-03-03T12:28:10;100670.91;;;7.04;86.15
804;BME280;25687;49.976;8.240;2023-03-03T12:33:51;100678.06;;;7.21;83.94
804;BME280;25687;49.976;8.240;2023-03-03T12:36:36;100670.63;;;6.85;84.49
804;BME280;25687;49.976;8.240;2023-03-03T12:39:14;100657.28;;;7.03;84.50
804;BME280;25687;49.976;8.240;2023-03-03T12:41:52;100655.91;;;7.20;83.84
804;BME280;25687;49.976;8.240;2023-03-03T12:44:29;100655.03;;;7.21;80.65
804;BME280;25687;49.976;8.240;2023-03-03T12:47:05;100654.66;;;7.32;81.20
804;BME280;25687;49.976;8.240;2023-03-03T12:50:00;100654.28;;;7.17;82.45
804;BME280;25687;49.976;8.240;2023-03-03T12:53:07;100643.47;;;7.36;81.20
804;BME280;25687;49.976;8.240;2023-03-03T12:55:51;100646.56;;;7.46;80.19
804;BME280;25687;49.976;8.240;2023-03-03T13:01:07;100633.16;;;7.64;75.74
804;BME280;25687;49.976;8.240;2023-03-03T13:03:54;100634.28;;;7.55;77.70
804;BME280;25687;49.976;8.240;2023-03-03T13:06:30;100637.34;;;7.65;76.79
804;BME280;25687;49.976;8.240;2023-03-03T13:12:14;100630.88;;;7.28;79.54
804;BME280;25687;49.976;8.240;2023-03-03T13:14:59;100633.47;;;7.01;79.82
804;BME280;25687;49.976;8.240;2023-03-03T13:19:58;100635.25;;;7.51;78.12
804;BME280;25687;49.976;8.240;2023-03-03T13:25:07;100631.13;;;7.74;72.86
804;BME280;25687;49.976;8.240;2023-03-03T13:27:43;100626.22;;;7.66;74.50
804;BME280;25687;49.976;8.240;2023-03-03T13:30:23;100621.28;;;7.62;75.21
804;BME280;25687;49.976;8.240;2023-03-03T13:35:44;100618.91;;;7.81;75.45
804;BME280;25687;49.976;8.240;2023-03-03T13:38:17;100607.66;;;7.85;73.63
804;BME280;25687;49.976;8.240;2023-03-03T13:41:29;100610.91;;;7.90;72.53
804;BME280;25687;49.976;8.240;2023-03-03T13:43:43;100609.53;;;8.05;71.05
804;BME280;25687;49.976;8.240;2023-03-03T13:46:18;100606.97;;;8.05;70.56
804;BME280;25687;49.976;8.240;2023-03-03T13:49:17;100606.94;;;8.06;72.62
804;BME280;25687;49.976;8.240;2023-03-03T13:57:28;100605.28;;;7.80;72.07
804;BME280;25687;49.976;8.240;2023-03-03T14:02:58;100600.19;;;8.04;73.77
804;BME280;25687;49.976;8.240;2023-03-03T14:05:36;100593.94;;;8.11;71.31
804;BME280;25687;49.976;8.240;2023-03-03T14:13:50;100586.13;;;8.14;68.71
804;BME280;25687;49.976;8.240;2023-03-03T14:16:34;100595.06;;;8.04;70.29
804;BME280;25687;49.976;8.240;2023-03-03T14:19:04;100588.91;;;8.32;69.20
804;BME280;25687;49.976;8.240;2023-03-03T14:21:39;100593.03;;;8.60;67.91
804;BME280;25687;49.976;8.240;2023-03-03T14:24:19;100582.72;;;8.37;67.70
804;BME280;25687;49.976;8.240;2023-03-03T14:26:49;100584.19;;;8.21;68.70
804;BME280;25687;49.976;8.240;2023-03-03T14:29:19;100584.41;;;8.15;70.30
804;BME280;25687;49.976;8.240;2023-03-03T14:31:45;100579.06;;;8.21;71.19
804;BME280;25687;49.976;8.240;2023-03-03T14:37:25;100579.06;;;8.45;66.90
804;BME280;25687;49.976;8.240;2023-03-03T14:42:37;100580.94;;;8.39;64.11
804;BME280;25687;49.976;8.240;2023-03-03T14:48:23;100586.06;;;8.16;64.28
804;BME280;25687;49.976;8.240;2023-03-03T14:50:56;100582.97;;;8.31;64.43
804;BME280;25687;49.976;8.240;2023-03-03T14:53:29;100572.81;;;8.28;65.25
804;BME280;25687;49.976;8.240;2023-03-03T14:56:55;100572.97;;;8.23;62.91
804;BME280;25687;49.976;8.240;2023-03-03T14:59:19;100576.75;;;8.37;61.25
804;BME280;25687;49.976;8.240;2023-03-03T15:01:45;100578.50;;;8.36;61.47
804;BME280;25687;49.976;8.240;2023-03-03T15:07:19;100582.97;;;8.07;61.70
804;BME280;25687;49.976;8.240;2023-03-03T15:09:48;100578.56;;;8.11;60.15
804;BME280;25687;49.976;8.240;2023-03-03T15:14:45;100569.13;;;8.35;59.39
804;BME280;25687;49.976;8.240;2023-03-03T15:17:35;100572.47;;;8.37;58.07
804;BME280;25687;49.976;8.240;2023-03-03T15:28:00;100568.53;;;8.29;55.67
804;BME280;25687;49.976;8.240;2023-03-03T15:30:38;100563.38;;;8.06;55.38
804;BME280;25687;49.976;8.240;2023-03-03T15:33:21;100567.31;;;8.15;55.64
804;BME280;25687;49.976;8.240;2023-03-03T15:35:56;100567.22;;;8.40;55.25
804;BME280;25687;49.976;8.240;2023-03-03T15:38:42;100563.94;;;8.37;53.57
804;BME280;25687;49.976;8.240;2023-03-03T15:43:57;100570.19;;;8.30;52.66
804;BME280;25687;49.976;8.240;2023-03-03T15:46:52;100565.41;;;8.20;52.59
804;BME280;25687;49.976;8.240;2023-03-03T15:52:26;100567.09;;;8.21;51.21
804;BME280;25687;49.976;8.240;2023-03-03T15:58:17;100565.91;;;8.30;50.75
804;BME280;25687;49.976;8.240;2023-03-03T16:03:56;100566.66;;;8.10;51.21
804;BME280;25687;49.976;8.240;2023-03-03T16:06:29;100569.97;;;8.12;50.61
804;BME280;25687;49.976;8.240;2023-03-03T16:09:27;100571.00;;;8.08;48.50
804;BME280;25687;49.976;8.240;2023-03-03T16:12:21;100568.88;;;7.96;47.14